createdAt,value
2023-12-11T00:00:15.376Z,20.27
2023-12-11T00:01:15.492Z,20.27
2023-12-11T00:02:15.408Z,20.27
2023-12-11T00:03:15.444Z,20.27
2023-12-11T00:04:15.534Z,20.27
2023-12-11T00:05:15.506Z,20.28
2023-12-11T00:06:15.472Z,20.27
2023-12-11T00:07:15.534Z,20.26
2023-12-11T00:08:15.489Z,20.27
2023-12-11T00:09:15.493Z,20.26
2023-12-11T00:10:15.603Z,20.27
2023-12-11T00:11:15.536Z,20.26
2023-12-11T00:12:15.564Z,20.26
2023-12-11T00:13:15.613Z,20.27
2023-12-11T00:14:15.615Z,20.26
2023-12-11T00:15:15.640Z,20.26
2023-12-11T00:16:15.639Z,20.26
2023-12-11T00:17:15.650Z,20.26
2023-12-11T00:18:15.724Z,20.27
2023-12-11T00:19:15.872Z,20.26
2023-12-11T00:20:15.693Z,20.26
2023-12-11T00:21:15.722Z,20.26
2023-12-11T00:22:15.778Z,20.26
2023-12-11T00:23:15.768Z,20.26
2023-12-11T00:24:15.765Z,20.26
2023-12-11T00:25:15.803Z,20.26
2023-12-11T00:26:15.807Z,20.27
2023-12-11T00:27:15.822Z,20.26
2023-12-11T00:28:15.915Z,20.26
2023-12-11T00:29:15.851Z,20.27
2023-12-11T00:30:15.901Z,20.26
2023-12-11T00:31:16.016Z,20.27
2023-12-11T00:32:15.905Z,20.27
2023-12-11T00:33:16.005Z,20.26
2023-12-11T00:34:16.010Z,20.26
2023-12-11T00:35:15.965Z,20.26
2023-12-11T00:36:15.987Z,20.25
2023-12-11T00:37:16.002Z,20.25
2023-12-11T00:38:16.020Z,20.26
2023-12-11T00:39:16.027Z,20.26
2023-12-11T00:40:16.094Z,20.25
2023-12-11T00:41:16.065Z,20.25
2023-12-11T00:42:16.076Z,20.25
2023-12-11T00:43:16.139Z,20.26
2023-12-11T00:44:16.104Z,20.25
2023-12-11T00:45:16.115Z,20.25
2023-12-11T00:46:16.153Z,20.25
2023-12-11T00:47:16.274Z,20.25
2023-12-11T00:48:16.236Z,20.25
2023-12-11T00:49:16.320Z,20.24
2023-12-11T00:50:16.246Z,20.24
2023-12-11T00:51:16.243Z,20.23
2023-12-11T00:52:16.283Z,20.24
2023-12-11T00:53:16.280Z,20.23
2023-12-11T00:54:16.307Z,20.23
2023-12-11T00:55:16.366Z,20.24
2023-12-11T00:56:16.471Z,20.25
2023-12-11T00:57:16.340Z,20.25
2023-12-11T00:58:16.504Z,20.25
2023-12-11T00:59:16.449Z,20.26
2023-12-11T01:00:16.398Z,20.26
2023-12-11T01:01:16.478Z,20.26
2023-12-11T01:02:16.403Z,20.26
2023-12-11T01:03:16.459Z,20.27
2023-12-11T01:04:16.481Z,20.27
2023-12-11T01:05:16.506Z,20.26
2023-12-11T01:06:16.453Z,20.26
2023-12-11T01:07:16.555Z,20.27
2023-12-11T01:08:16.519Z,20.27
2023-12-11T01:09:16.540Z,20.26
2023-12-11T01:10:16.590Z,20.26
2023-12-11T01:11:16.568Z,20.26
2023-12-11T01:12:16.588Z,20.26
2023-12-11T01:13:16.590Z,20.26
2023-12-11T01:14:16.596Z,20.26
2023-12-11T01:15:16.626Z,20.26
2023-12-11T01:16:16.745Z,20.26
2023-12-11T01:17:37.268Z,20.25
2023-12-11T01:18:17.719Z,20.25
2023-12-11T01:19:16.791Z,20.25
2023-12-11T01:20:16.678Z,20.25
2023-12-11T01:21:16.650Z,20.25
2023-12-11T01:22:16.649Z,20.25
2023-12-11T01:23:16.680Z,20.25
2023-12-11T01:24:16.651Z,20.25
2023-12-11T01:25:16.734Z,20.24
2023-12-11T01:26:16.657Z,20.24
2023-12-11T01:27:16.669Z,20.24
2023-12-11T01:28:16.710Z,20.25
2023-12-11T01:29:16.668Z,20.25
2023-12-11T01:30:16.670Z,20.26
2023-12-11T01:31:16.754Z,20.26
2023-12-11T01:32:16.682Z,20.26
2023-12-11T01:33:16.811Z,20.26
2023-12-11T01:34:16.752Z,20.25
2023-12-11T01:35:16.719Z,20.26
2023-12-11T01:36:16.690Z,20.26
2023-12-11T01:37:16.706Z,20.25
2023-12-11T01:38:16.700Z,20.25
2023-12-11T01:39:16.698Z,20.24
2023-12-11T01:40:16.796Z,20.25
2023-12-11T01:41:16.715Z,20.25
2023-12-11T01:42:16.720Z,20.25
2023-12-11T01:43:18.839Z,20.25
2023-12-11T01:44:16.774Z,20.24
2023-12-11T01:45:16.730Z,20.24
2023-12-11T01:46:16.775Z,20.24
2023-12-11T01:47:16.795Z,20.24
2023-12-11T01:48:17.003Z,20.23
2023-12-11T01:49:16.926Z,20.23
2023-12-11T01:50:16.753Z,20.23
2023-12-11T01:51:16.764Z,20.23
2023-12-11T01:52:16.787Z,20.23
2023-12-11T01:53:16.771Z,20.24
2023-12-11T01:54:16.777Z,20.23
2023-12-11T01:55:16.769Z,20.23
2023-12-11T01:56:16.771Z,20.24
2023-12-11T01:57:16.764Z,20.24
2023-12-11T01:58:16.796Z,20.24
2023-12-11T01:59:16.807Z,20.22
2023-12-11T02:00:16.785Z,20.23
2023-12-11T02:01:16.883Z,20.23
2023-12-11T02:02:16.788Z,20.24
2023-12-11T02:03:16.892Z,20.24
2023-12-11T02:04:16.859Z,20.24
2023-12-11T02:05:16.816Z,20.23
2023-12-11T02:06:16.789Z,20.23
2023-12-11T02:07:16.791Z,20.23
2023-12-11T02:08:16.765Z,20.23
2023-12-11T02:09:16.776Z,20.23
2023-12-11T02:10:16.819Z,20.23
2023-12-11T02:11:16.776Z,20.22
2023-12-11T02:12:16.775Z,20.22
2023-12-11T02:13:16.802Z,20.23
2023-12-11T02:14:16.787Z,20.23
2023-12-11T02:15:16.805Z,20.22
2023-12-11T02:16:16.876Z,20.23
2023-12-11T02:17:16.790Z,20.24
2023-12-11T02:18:16.962Z,20.24
2023-12-11T02:19:16.911Z,20.23
2023-12-11T02:20:16.804Z,20.24
2023-12-11T02:21:16.820Z,20.24
2023-12-11T02:22:16.864Z,20.24
2023-12-11T02:23:16.824Z,20.24
2023-12-11T02:24:16.836Z,20.25
2023-12-11T02:25:16.855Z,20.24
2023-12-11T02:26:16.839Z,20.25
2023-12-11T02:27:16.837Z,20.25
2023-12-11T02:28:16.863Z,20.24
2023-12-11T02:29:16.850Z,20.24
2023-12-11T02:30:16.860Z,20.24
2023-12-11T02:31:16.910Z,20.24
2023-12-11T02:32:16.848Z,20.24
2023-12-11T02:33:16.905Z,20.24
2023-12-11T02:34:16.864Z,20.24
2023-12-11T02:35:16.842Z,20.24
2023-12-11T02:36:16.869Z,20.24
2023-12-11T02:37:16.875Z,20.24
2023-12-11T02:38:16.911Z,20.23
2023-12-11T02:39:16.855Z,20.23
2023-12-11T02:40:16.926Z,20.24
2023-12-11T02:41:16.906Z,20.23
2023-12-11T02:42:16.882Z,20.24
2023-12-11T02:43:16.873Z,20.23
2023-12-11T02:44:16.856Z,20.23
2023-12-11T02:45:16.861Z,20.23
2023-12-11T02:46:16.920Z,20.22
2023-12-11T02:47:16.869Z,20.22
2023-12-11T02:48:16.975Z,20.23
2023-12-11T02:49:16.992Z,20.23
2023-12-11T02:50:16.864Z,20.23
2023-12-11T02:51:16.906Z,20.23
2023-12-11T02:52:16.906Z,20.23
2023-12-11T02:53:16.865Z,20.23
2023-12-11T02:54:16.901Z,20.22
2023-12-11T02:55:16.894Z,20.23
2023-12-11T02:56:16.874Z,20.22
2023-12-11T02:57:16.874Z,20.23
2023-12-11T02:58:16.909Z,20.23
2023-12-11T02:59:17.316Z,20.24
2023-12-11T03:00:16.879Z,20.24
2023-12-11T03:01:17.034Z,20.24
2023-12-11T03:02:16.903Z,20.24
2023-12-11T03:03:16.943Z,20.24
2023-12-11T03:04:16.993Z,20.22
2023-12-11T03:05:16.924Z,20.22
2023-12-11T03:06:16.956Z,20.22
2023-12-11T03:07:16.990Z,20.23
2023-12-11T03:08:16.936Z,20.23
2023-12-11T03:09:16.948Z,20.22
2023-12-11T03:10:17.030Z,20.23
2023-12-11T03:11:16.979Z,20.23
2023-12-11T03:12:16.974Z,20.24
2023-12-11T03:13:17.018Z,20.23
2023-12-11T03:14:16.968Z,20.23
2023-12-11T03:15:16.973Z,20.23
2023-12-11T03:16:17.023Z,20.23
2023-12-11T03:17:16.985Z,20.22
2023-12-11T03:18:17.057Z,20.23
2023-12-11T03:19:17.074Z,20.23
2023-12-11T03:20:17.007Z,20.23
2023-12-11T03:21:17.013Z,20.23
2023-12-11T03:22:17.023Z,20.23
2023-12-11T03:23:16.997Z,20.24
2023-12-11T03:24:17.006Z,20.22
2023-12-11T03:25:17.122Z,20.23
2023-12-11T03:26:17.029Z,20.22
2023-12-11T03:27:17.019Z,20.22
2023-12-11T03:28:17.041Z,20.23
2023-12-11T03:29:17.032Z,20.23
2023-12-11T03:30:17.031Z,20.23
2023-12-11T03:31:17.104Z,20.22
2023-12-11T03:32:17.043Z,20.22
2023-12-11T03:33:17.062Z,20.23
2023-12-11T03:34:17.064Z,20.23
2023-12-11T03:35:17.055Z,20.25
2023-12-11T03:36:17.057Z,20.24
2023-12-11T03:37:17.056Z,20.26
2023-12-11T03:38:17.062Z,20.27
2023-12-11T03:39:17.071Z,20.27
2023-12-11T03:40:17.112Z,20.28
2023-12-11T03:41:17.080Z,20.28
2023-12-11T03:42:17.079Z,20.28
2023-12-11T03:43:17.133Z,20.29
2023-12-11T03:44:17.078Z,20.29
2023-12-11T03:45:17.089Z,20.31
2023-12-11T03:46:17.141Z,20.31
2023-12-11T03:47:17.100Z,20.32
2023-12-11T03:48:17.173Z,20.32
2023-12-11T03:49:17.171Z,20.34
2023-12-11T03:50:17.093Z,20.35
2023-12-11T03:51:17.094Z,20.35
2023-12-11T03:52:17.133Z,20.36
2023-12-11T03:53:17.092Z,20.36
2023-12-11T03:54:17.106Z,20.37
2023-12-11T03:55:17.136Z,20.38
2023-12-11T03:56:17.121Z,20.39
2023-12-11T03:57:17.121Z,20.40
2023-12-11T03:58:17.210Z,20.41
2023-12-11T03:59:17.140Z,20.42
2023-12-11T04:00:17.156Z,20.43
2023-12-11T04:01:17.251Z,20.43
2023-12-11T04:02:17.343Z,20.44
2023-12-11T04:03:17.139Z,20.44
2023-12-11T04:04:17.257Z,20.45
2023-12-11T04:05:17.152Z,20.45
2023-12-11T04:06:17.168Z,20.46
2023-12-11T04:07:17.222Z,20.46
2023-12-11T04:08:17.199Z,20.47
2023-12-11T04:09:17.234Z,20.48
2023-12-11T04:10:17.291Z,20.48
2023-12-11T04:11:17.296Z,20.49
2023-12-11T04:12:17.339Z,20.48
2023-12-11T04:13:17.461Z,20.50
2023-12-11T04:14:17.430Z,20.50
2023-12-11T04:15:17.487Z,20.51
2023-12-11T04:16:17.545Z,20.52
2023-12-11T04:17:17.604Z,20.52
2023-12-11T04:18:17.693Z,20.52
2023-12-11T04:19:17.782Z,20.53
2023-12-11T04:20:17.726Z,20.53
2023-12-11T04:21:17.850Z,20.54
2023-12-11T04:22:17.856Z,20.53
2023-12-11T04:23:17.861Z,20.54
2023-12-11T04:24:17.921Z,20.54
2023-12-11T04:25:18.033Z,20.55
2023-12-11T04:26:18.017Z,20.55
2023-12-11T04:27:18.075Z,20.56
2023-12-11T04:28:18.152Z,20.56
2023-12-11T04:29:18.198Z,20.56
2023-12-11T04:30:18.313Z,20.57
2023-12-11T04:31:18.336Z,20.58
2023-12-11T04:32:18.390Z,20.58
2023-12-11T04:33:18.542Z,20.60
2023-12-11T04:34:18.503Z,20.59
2023-12-11T04:35:18.533Z,20.60
2023-12-11T04:36:18.607Z,20.60
2023-12-11T04:37:18.681Z,20.61
2023-12-11T04:38:18.705Z,20.61
2023-12-11T04:39:18.759Z,20.61
2023-12-11T04:40:18.841Z,20.62
2023-12-11T04:41:18.871Z,20.62
2023-12-11T04:42:18.952Z,20.63
2023-12-11T04:43:18.983Z,20.63
2023-12-11T04:44:19.041Z,20.64
2023-12-11T04:45:19.084Z,20.64
2023-12-11T04:46:19.193Z,20.64
2023-12-11T04:47:19.198Z,20.64
2023-12-11T04:48:19.350Z,20.65
2023-12-11T04:49:19.378Z,20.66
2023-12-11T04:50:19.378Z,20.66
2023-12-11T04:51:19.448Z,20.66
2023-12-11T04:52:19.528Z,20.67
2023-12-11T04:53:19.564Z,20.67
2023-12-11T04:54:19.615Z,20.67
2023-12-11T04:55:19.746Z,20.67
2023-12-11T04:56:19.745Z,20.68
2023-12-11T04:57:19.794Z,20.67
2023-12-11T04:58:19.881Z,20.68
2023-12-11T04:59:19.908Z,20.69
2023-12-11T05:00:19.982Z,20.69
2023-12-11T05:01:20.107Z,20.69
2023-12-11T05:02:20.102Z,20.69
2023-12-11T05:03:27.458Z,20.68
2023-12-11T05:04:27.448Z,20.68
2023-12-11T05:05:27.602Z,20.68
2023-12-11T05:06:27.486Z,20.68
2023-12-11T05:07:27.603Z,20.68
2023-12-11T05:08:30.118Z,20.69
2023-12-11T05:09:27.481Z,20.70
2023-12-11T05:10:27.498Z,20.69
2023-12-11T05:11:27.579Z,20.70
2023-12-11T05:12:27.506Z,20.70
2023-12-11T05:13:27.497Z,20.70
2023-12-11T05:14:27.489Z,20.71
2023-12-11T05:15:27.494Z,20.71
2023-12-11T05:16:28.297Z,20.71
2023-12-11T05:17:27.615Z,20.72
2023-12-11T05:18:27.504Z,20.72
2023-12-11T05:19:27.602Z,20.72
2023-12-11T05:20:27.518Z,20.72
2023-12-11T05:21:27.527Z,20.72
2023-12-11T05:22:27.573Z,20.73
2023-12-11T05:23:27.523Z,20.73
2023-12-11T05:24:27.531Z,20.73
2023-12-11T05:25:27.535Z,20.74
2023-12-11T05:26:27.541Z,20.75
2023-12-11T05:27:27.675Z,20.75
2023-12-11T05:28:27.569Z,20.75
2023-12-11T05:29:27.567Z,20.75
2023-12-11T05:30:27.628Z,20.76
2023-12-11T05:31:27.562Z,20.75
2023-12-11T05:32:27.625Z,20.75
2023-12-11T05:33:27.652Z,20.76
2023-12-11T05:34:27.661Z,20.75
2023-12-11T05:35:27.590Z,20.76
2023-12-11T05:36:27.612Z,20.77
2023-12-11T05:37:27.824Z,20.77
2023-12-11T05:38:27.614Z,20.76
2023-12-11T05:39:27.615Z,20.77
2023-12-11T05:40:27.745Z,20.78
2023-12-11T05:41:27.627Z,20.79
2023-12-11T05:42:27.613Z,20.78
2023-12-11T05:43:27.609Z,20.78
2023-12-11T05:44:27.635Z,20.79
2023-12-11T05:45:27.702Z,20.79
2023-12-11T05:46:27.752Z,20.80
2023-12-11T05:47:28.068Z,20.80
2023-12-11T05:48:27.990Z,20.81
2023-12-11T05:49:28.006Z,20.80
2023-12-11T05:50:27.986Z,20.80
2023-12-11T05:51:28.051Z,20.81
2023-12-11T05:52:29.096Z,20.81
2023-12-11T05:53:29.008Z,20.81
2023-12-11T05:54:28.243Z,20.81
2023-12-11T05:55:28.293Z,20.81
2023-12-11T05:56:28.403Z,20.81
2023-12-11T05:57:28.613Z,20.82
2023-12-11T05:58:28.486Z,20.82
2023-12-11T05:59:28.526Z,20.82
2023-12-11T06:00:28.602Z,20.82
2023-12-11T06:01:28.809Z,20.83
2023-12-11T06:02:28.709Z,20.83
2023-12-11T06:03:28.748Z,20.84
2023-12-11T06:04:28.801Z,20.84
2023-12-11T06:05:28.930Z,20.85
2023-12-11T06:06:30.943Z,20.84
2023-12-11T06:07:29.142Z,20.85
2023-12-11T06:08:28.912Z,20.85
2023-12-11T06:09:28.915Z,20.84
2023-12-11T06:10:28.955Z,20.84
2023-12-11T06:11:28.931Z,20.85
2023-12-11T06:12:28.930Z,20.85
2023-12-11T06:13:28.945Z,20.86
2023-12-11T06:14:28.960Z,20.87
2023-12-11T06:15:28.960Z,20.87
2023-12-11T06:16:28.981Z,20.87
2023-12-11T06:17:29.250Z,20.88
2023-12-11T06:18:29.023Z,20.89
2023-12-11T06:19:29.033Z,20.89
2023-12-11T06:20:28.973Z,20.89
2023-12-11T06:21:28.981Z,20.89
2023-12-11T06:22:28.988Z,20.89
2023-12-11T06:23:28.989Z,20.89
2023-12-11T06:24:28.999Z,20.89
2023-12-11T06:25:28.986Z,20.90
2023-12-11T06:26:28.992Z,20.90
2023-12-11T06:27:29.408Z,20.91
2023-12-11T06:28:29.000Z,20.92
2023-12-11T06:29:28.993Z,20.93
2023-12-11T06:30:29.084Z,20.95
2023-12-11T06:31:29.009Z,20.95
2023-12-11T06:32:29.015Z,20.96
2023-12-11T06:33:29.019Z,20.96
2023-12-11T06:34:29.153Z,20.97
2023-12-11T06:35:29.085Z,20.97
2023-12-11T06:36:29.019Z,20.97
2023-12-11T06:37:29.179Z,20.99
2023-12-11T06:38:29.068Z,21.00
2023-12-11T06:39:29.087Z,21.04
2023-12-11T06:40:29.044Z,21.08
2023-12-11T06:41:29.061Z,21.12
2023-12-11T06:42:29.055Z,21.15
2023-12-11T06:43:29.108Z,21.19
2023-12-11T06:44:29.064Z,21.23
2023-12-11T06:45:30.421Z,21.24
2023-12-11T06:46:29.101Z,21.29
2023-12-11T06:47:29.355Z,21.31
2023-12-11T06:48:29.093Z,21.34
2023-12-11T06:49:30.614Z,21.37
2023-12-11T06:50:29.161Z,21.40
2023-12-11T06:51:29.077Z,21.42
2023-12-11T06:52:29.031Z,21.45
2023-12-11T06:53:29.031Z,21.48
2023-12-11T06:54:29.028Z,21.50
2023-12-11T06:55:29.108Z,21.54
2023-12-11T06:56:29.029Z,21.56
2023-12-11T06:57:29.297Z,21.58
2023-12-11T06:58:29.069Z,21.60
2023-12-11T06:59:29.023Z,21.62
2023-12-11T07:00:29.035Z,21.63
2023-12-11T07:01:29.119Z,21.65
2023-12-11T07:02:29.145Z,21.68
2023-12-11T07:03:29.124Z,21.69
2023-12-11T07:04:29.364Z,21.71
2023-12-11T07:05:29.162Z,21.73
2023-12-11T07:06:29.056Z,21.75
2023-12-11T07:07:29.234Z,21.77
2023-12-11T07:08:29.032Z,21.79
2023-12-11T07:09:29.081Z,21.81
2023-12-11T07:10:29.139Z,21.83
2023-12-11T07:11:29.198Z,21.84
2023-12-11T07:12:29.263Z,21.86
2023-12-11T07:13:29.371Z,21.87
2023-12-11T07:14:29.442Z,21.89
2023-12-11T07:15:29.433Z,21.91
2023-12-11T07:16:29.490Z,21.91
2023-12-11T07:17:30.705Z,21.93
2023-12-11T07:18:29.695Z,21.94
2023-12-11T07:19:30.185Z,21.95
2023-12-11T07:20:29.688Z,21.97
2023-12-11T07:21:29.817Z,21.98
2023-12-11T07:22:29.789Z,21.99
2023-12-11T07:23:29.849Z,22.02
2023-12-11T07:24:30.657Z,22.03
2023-12-11T07:25:29.998Z,22.04
2023-12-11T07:26:29.986Z,22.04
2023-12-11T07:27:30.184Z,22.06
2023-12-11T07:28:30.063Z,22.07
2023-12-11T07:29:30.116Z,22.09
2023-12-11T07:30:30.406Z,22.10
2023-12-11T07:31:30.201Z,22.11
2023-12-11T07:32:30.277Z,22.13
2023-12-11T07:33:30.369Z,22.13
2023-12-11T07:34:30.727Z,22.14
2023-12-11T07:35:30.398Z,22.16
2023-12-11T07:36:30.396Z,22.18
2023-12-11T07:37:30.625Z,22.20
2023-12-11T07:38:30.456Z,22.21
2023-12-11T07:39:30.497Z,22.23
2023-12-11T07:40:30.543Z,22.24
2023-12-11T07:41:30.588Z,22.25
2023-12-11T07:42:30.631Z,22.26
2023-12-11T07:43:30.650Z,22.28
2023-12-11T07:44:30.698Z,22.29
2023-12-11T07:45:30.717Z,22.30
2023-12-11T07:46:30.770Z,22.30
2023-12-11T07:47:31.052Z,22.28
2023-12-11T07:48:30.894Z,22.25
2023-12-11T07:49:31.105Z,22.23
2023-12-11T07:50:30.968Z,22.21
2023-12-11T07:51:31.018Z,22.19
2023-12-11T07:52:31.055Z,22.18
2023-12-11T07:53:31.032Z,22.18
2023-12-11T07:54:31.048Z,22.20
2023-12-11T07:55:31.096Z,22.21
2023-12-11T07:56:31.195Z,22.22
2023-12-11T07:57:31.470Z,22.23
2023-12-11T07:58:31.262Z,22.24
2023-12-11T07:59:31.317Z,22.24
2023-12-11T08:00:31.379Z,22.24
2023-12-11T08:01:31.532Z,22.25
2023-12-11T08:02:31.510Z,22.25
2023-12-11T08:03:31.636Z,22.25
2023-12-11T08:04:31.724Z,22.26
2023-12-11T08:05:31.717Z,22.27
2023-12-11T08:06:31.720Z,22.28
2023-12-11T08:07:32.064Z,22.28
2023-12-11T08:08:31.829Z,22.29
2023-12-11T08:09:31.903Z,22.30
2023-12-11T08:10:32.131Z,22.32
2023-12-11T08:11:32.015Z,22.32
2023-12-11T08:12:32.105Z,22.33
2023-12-11T08:13:32.146Z,22.33
2023-12-11T08:14:32.208Z,22.33
2023-12-11T08:15:32.277Z,22.35
2023-12-11T08:16:32.341Z,22.35
2023-12-11T08:17:32.639Z,22.35
2023-12-11T08:18:32.522Z,22.36
2023-12-11T08:19:32.591Z,22.33
2023-12-11T08:20:32.585Z,22.22
2023-12-11T08:21:32.630Z,21.97
2023-12-11T08:22:32.704Z,21.55
2023-12-11T08:23:32.752Z,21.19
2023-12-11T08:24:32.808Z,20.88
2023-12-11T08:25:33.668Z,20.69
2023-12-11T08:26:32.933Z,20.62
2023-12-11T08:27:33.026Z,20.58
2023-12-11T08:28:33.097Z,20.57
2023-12-11T08:29:33.095Z,20.58
2023-12-11T08:30:33.155Z,20.63
2023-12-11T08:31:33.156Z,20.68
2023-12-11T08:32:34.191Z,20.75
2023-12-11T08:33:33.329Z,20.83
2023-12-11T08:34:34.165Z,20.91
2023-12-11T08:35:33.418Z,21.00
2023-12-11T08:36:33.481Z,21.07
2023-12-11T08:37:33.860Z,21.13
2023-12-11T08:38:33.591Z,21.20
2023-12-11T08:39:33.647Z,21.25
2023-12-11T08:40:33.708Z,21.30
2023-12-11T08:41:33.724Z,21.35
2023-12-11T08:42:36.322Z,21.40
2023-12-11T08:43:34.820Z,21.44
2023-12-11T08:44:33.767Z,21.48
2023-12-11T08:45:33.773Z,21.53
2023-12-11T08:46:33.782Z,21.57
2023-12-11T08:47:37.348Z,21.62
2023-12-11T08:48:34.986Z,21.65
2023-12-11T08:49:33.862Z,21.69
2023-12-11T08:50:33.754Z,21.73
2023-12-11T08:51:33.731Z,21.76
2023-12-11T08:52:33.742Z,21.80
2023-12-11T08:53:33.721Z,21.82
2023-12-11T08:54:33.723Z,21.86
2023-12-11T08:55:33.716Z,21.90
2023-12-11T08:56:33.754Z,21.93
2023-12-11T08:57:33.963Z,21.96
2023-12-11T08:58:33.898Z,21.98
2023-12-11T08:59:33.992Z,22.00
2023-12-11T09:00:33.964Z,22.02
2023-12-11T09:01:34.081Z,22.05
2023-12-11T09:02:34.053Z,22.08
2023-12-11T09:03:34.092Z,22.10
2023-12-11T09:04:34.253Z,22.12
2023-12-11T09:05:34.178Z,22.14
2023-12-11T09:06:34.171Z,22.17
2023-12-11T09:07:34.401Z,22.19
2023-12-11T09:08:34.231Z,22.22
2023-12-11T09:09:34.261Z,22.24
2023-12-11T09:10:34.299Z,22.25
2023-12-11T09:11:35.169Z,22.27
2023-12-11T09:12:34.417Z,22.30
2023-12-11T09:13:34.409Z,22.31
2023-12-11T09:14:34.399Z,22.32
2023-12-11T09:15:34.580Z,22.35
2023-12-11T09:16:34.530Z,22.36
2023-12-11T09:17:34.946Z,22.35
2023-12-11T09:18:34.747Z,22.37
2023-12-11T09:19:44.206Z,22.39
2023-12-11T09:20:35.792Z,22.37
2023-12-11T09:21:34.585Z,22.38
2023-12-11T09:22:34.555Z,22.40
2023-12-11T09:23:34.533Z,22.39
2023-12-11T09:24:34.517Z,22.40
2023-12-11T09:25:36.681Z,22.39
2023-12-11T09:26:34.553Z,22.38
2023-12-11T09:27:34.564Z,22.38
2023-12-11T09:28:41.561Z,22.37
2023-12-11T09:29:35.606Z,22.35
2023-12-11T09:30:34.596Z,22.35
2023-12-11T09:31:34.612Z,22.34
2023-12-11T09:32:34.642Z,22.33
2023-12-11T09:33:34.658Z,22.33
2023-12-11T09:34:34.794Z,22.32
2023-12-11T09:35:34.626Z,22.32
2023-12-11T09:36:34.558Z,22.31
2023-12-11T09:37:34.599Z,22.30
2023-12-11T09:38:34.516Z,22.29
2023-12-11T09:39:34.505Z,22.28
2023-12-11T09:40:34.506Z,22.26
2023-12-11T09:41:34.509Z,22.26
2023-12-11T09:42:35.195Z,22.25
2023-12-11T09:43:34.463Z,22.24
2023-12-11T09:44:34.455Z,22.22
2023-12-11T09:45:34.448Z,22.21
2023-12-11T09:46:34.441Z,22.20
2023-12-11T09:47:34.937Z,22.20
2023-12-11T09:48:35.248Z,22.18
2023-12-11T09:49:34.454Z,22.16
2023-12-11T09:50:34.488Z,22.16
2023-12-11T09:51:34.410Z,22.15
2023-12-11T09:52:35.715Z,22.14
2023-12-11T09:53:34.428Z,22.14
2023-12-11T09:54:34.453Z,22.13
2023-12-11T09:55:34.451Z,22.12
2023-12-11T09:56:34.478Z,22.11
2023-12-11T09:57:34.470Z,22.10
2023-12-11T09:58:34.490Z,22.09
2023-12-11T09:59:34.487Z,22.08
2023-12-11T10:00:34.516Z,22.06
2023-12-11T10:01:34.611Z,22.05
2023-12-11T10:02:34.590Z,22.03
2023-12-11T10:03:34.698Z,22.03
2023-12-11T10:04:35.249Z,22.02
2023-12-11T10:05:34.631Z,22.00
2023-12-11T10:06:34.670Z,21.99
2023-12-11T10:07:34.688Z,21.99
2023-12-11T10:08:34.712Z,21.97
2023-12-11T10:09:34.716Z,21.96
2023-12-11T10:10:34.974Z,21.96
2023-12-11T10:11:35.613Z,21.94
2023-12-11T10:12:34.787Z,21.94
2023-12-11T10:13:34.815Z,21.94
2023-12-11T10:14:34.838Z,21.93
2023-12-11T10:15:34.876Z,21.92
2023-12-11T10:16:34.920Z,21.92
2023-12-11T10:17:35.323Z,21.91
2023-12-11T10:18:35.042Z,21.90
2023-12-11T10:19:35.201Z,21.88
2023-12-11T10:20:35.906Z,21.87
2023-12-11T10:21:35.048Z,21.90
2023-12-11T10:22:35.056Z,21.91
2023-12-11T10:23:35.078Z,21.94
2023-12-11T10:24:35.122Z,21.97
2023-12-11T10:25:35.185Z,22.00
2023-12-11T10:26:35.201Z,22.02
2023-12-11T10:27:35.063Z,22.05
2023-12-11T10:28:35.802Z,22.06
2023-12-11T10:29:35.704Z,22.09
2023-12-11T10:30:35.074Z,22.10
2023-12-11T10:31:35.702Z,22.12
2023-12-11T10:32:35.119Z,22.13
2023-12-11T10:33:35.454Z,22.15
2023-12-11T10:34:36.215Z,22.17
2023-12-11T10:35:35.267Z,22.18
2023-12-11T10:36:35.282Z,22.20
2023-12-11T10:37:35.318Z,22.21
2023-12-11T10:38:35.365Z,22.22
2023-12-11T10:39:35.397Z,22.24
2023-12-11T10:40:35.444Z,22.25
2023-12-11T10:41:35.489Z,22.27
2023-12-11T10:42:35.515Z,22.29
2023-12-11T10:43:50.533Z,22.31
2023-12-11T10:44:46.662Z,22.32
2023-12-11T10:45:36.516Z,22.33
2023-12-11T10:46:35.584Z,22.35
2023-12-11T10:47:35.948Z,22.38
2023-12-11T10:48:35.578Z,22.39
2023-12-11T10:49:36.478Z,22.40
2023-12-11T10:50:35.441Z,22.41
2023-12-11T10:51:35.434Z,22.43
2023-12-11T10:52:35.477Z,22.44
2023-12-11T10:53:35.406Z,22.45
2023-12-11T10:54:35.401Z,22.47
2023-12-11T10:55:35.538Z,22.48
2023-12-11T10:56:35.400Z,22.49
2023-12-11T10:57:35.693Z,22.51
2023-12-11T10:58:35.307Z,22.52
2023-12-11T10:59:35.292Z,22.53
2023-12-11T11:00:35.318Z,22.54
2023-12-11T11:01:35.358Z,22.56
2023-12-11T11:02:35.288Z,22.56
2023-12-11T11:03:35.304Z,22.57
2023-12-11T11:04:35.238Z,22.58
2023-12-11T11:05:35.313Z,22.59
2023-12-11T11:06:35.213Z,22.60
2023-12-11T11:07:35.532Z,22.62
2023-12-11T11:08:35.155Z,22.62
2023-12-11T11:09:35.142Z,22.64
2023-12-11T11:10:35.131Z,22.66
2023-12-11T11:11:35.112Z,22.66
2023-12-11T11:12:36.737Z,22.67
2023-12-11T11:13:35.148Z,22.67
2023-12-11T11:14:35.163Z,22.69
2023-12-11T11:15:35.204Z,22.68
2023-12-11T11:16:35.226Z,22.64
2023-12-11T11:17:35.449Z,22.62
2023-12-11T11:18:35.453Z,22.61
2023-12-11T11:19:35.388Z,22.61
2023-12-11T11:20:36.158Z,22.63
2023-12-11T11:21:36.450Z,22.64
2023-12-11T11:22:38.878Z,22.64
2023-12-11T11:23:37.170Z,22.64
2023-12-11T11:24:35.536Z,22.64
2023-12-11T11:25:35.604Z,22.65
2023-12-11T11:26:35.711Z,22.65
2023-12-11T11:27:35.403Z,22.64
2023-12-11T11:28:35.546Z,22.64
2023-12-11T11:29:35.373Z,22.64
2023-12-11T11:30:35.366Z,22.64
2023-12-11T11:31:35.373Z,22.64
2023-12-11T11:32:35.341Z,22.65
2023-12-11T11:33:35.323Z,22.65
2023-12-11T11:34:35.312Z,22.66
2023-12-11T11:35:35.251Z,22.67
2023-12-11T11:36:35.229Z,22.67
2023-12-11T11:37:35.277Z,22.68
2023-12-11T11:38:35.206Z,22.68
2023-12-11T11:39:37.800Z,22.68
2023-12-11T11:40:35.342Z,22.69
2023-12-11T11:41:35.219Z,22.70
2023-12-11T11:42:35.148Z,22.70
2023-12-11T11:43:35.118Z,22.71
2023-12-11T11:44:35.106Z,22.73
2023-12-11T11:45:35.086Z,22.73
2023-12-11T11:46:35.067Z,22.73
2023-12-11T11:47:35.220Z,22.73
2023-12-11T11:48:35.111Z,22.74
2023-12-11T11:49:35.077Z,22.75
2023-12-11T11:50:34.982Z,22.75
2023-12-11T11:51:34.960Z,22.75
2023-12-11T11:52:34.978Z,22.76
2023-12-11T11:53:34.925Z,22.75
2023-12-11T11:54:34.905Z,22.77
2023-12-11T11:55:34.999Z,22.77
2023-12-11T11:56:34.872Z,22.78
2023-12-11T11:57:34.846Z,22.78
2023-12-11T11:58:34.825Z,22.78
2023-12-11T11:59:34.795Z,22.79
2023-12-11T12:00:34.804Z,22.80
2023-12-11T12:01:35.943Z,22.81
2023-12-11T12:02:34.744Z,22.83
2023-12-11T12:03:34.773Z,22.83
2023-12-11T12:04:34.823Z,22.84
2023-12-11T12:05:34.676Z,22.86
2023-12-11T12:06:34.666Z,22.87
2023-12-11T12:07:34.662Z,22.86
2023-12-11T12:08:34.624Z,22.87
2023-12-11T12:09:34.611Z,22.87
2023-12-11T12:10:34.634Z,22.87
2023-12-11T12:11:34.551Z,22.86
2023-12-11T12:12:34.534Z,22.87
2023-12-11T12:13:34.597Z,22.86
2023-12-11T12:14:35.249Z,22.86
2023-12-11T12:15:34.496Z,22.86
2023-12-11T12:16:34.474Z,22.85
2023-12-11T12:17:35.026Z,22.84
2023-12-11T12:18:34.616Z,22.83
2023-12-11T12:19:34.634Z,22.83
2023-12-11T12:20:34.410Z,22.82
2023-12-11T12:21:34.395Z,22.81
2023-12-11T12:22:34.629Z,22.79
2023-12-11T12:23:34.456Z,22.79
2023-12-11T12:24:34.355Z,22.78
2023-12-11T12:25:34.403Z,22.77
2023-12-11T12:26:34.329Z,22.75
2023-12-11T12:27:34.379Z,22.74
2023-12-11T12:28:34.294Z,22.73
2023-12-11T12:29:34.284Z,22.71
2023-12-11T12:30:34.251Z,22.69
2023-12-11T12:31:34.273Z,22.67
2023-12-11T12:32:34.337Z,22.66
2023-12-11T12:33:34.422Z,22.65
2023-12-11T12:34:34.500Z,22.64
2023-12-11T12:35:34.490Z,22.63
2023-12-11T12:36:34.525Z,22.63
2023-12-11T12:37:34.991Z,22.62
2023-12-11T12:38:34.634Z,22.60
2023-12-11T12:39:34.680Z,22.59
2023-12-11T12:40:34.734Z,22.58
2023-12-11T12:41:34.819Z,22.57
2023-12-11T12:42:34.855Z,22.58
2023-12-11T12:43:34.916Z,22.57
2023-12-11T12:44:34.942Z,22.57
2023-12-11T12:45:36.733Z,22.57
2023-12-11T12:46:35.038Z,22.57
2023-12-11T12:47:35.329Z,22.56
2023-12-11T12:48:35.181Z,22.56
2023-12-11T12:49:35.327Z,22.56
2023-12-11T12:50:35.212Z,22.55
2023-12-11T12:51:35.237Z,22.54
2023-12-11T12:52:35.279Z,22.53